Estación Meteorológica Peña el Pijo (Robertgarden) [ 10/21/17 19:50:34 CEST ]

Fecha Hora Presion(HPa) Temp (°C) Humedad % Rocio (°C) Viento ( m/s) Direccion Lluvia 1Hora(mm) Lluvia 24H(mm) LLuvia Total(mm)
2017-Oct-18 01:01:45 1011.200 10.4 72 5.6         1457.65
2017-Oct-18 02:01:12 1010.400 9.3 76 5.3         1457.65
2017-Oct-18 03:01:43 1010.100 8.9 78 5.2         1457.65
2017-Oct-18 04:01:39 1009.100 9.8 80 6.5         1457.65
2017-Oct-18 05:03:24 1008.300 12.9 71 7.8         1457.65
2017-Oct-18 06:01:41 1007.500 12.5 71 7.4         1457.65
2017-Oct-18 07:01:20 1007.100 12.1 71 7.1         1457.65
2017-Oct-18 08:01:27 1006.900 10.9 73 6.3         1457.65
2017-Oct-18 09:01:41 1006.600 11.1 75 6.8         1457.65
2017-Oct-18 10:02:05 1006.600 13.0 78 9.2         1457.65
2017-Oct-18 11:01:44 1007.500 12.5 80 9.1         1457.65
2017-Oct-18 12:01:42 1007.500 11.6 81 8.5     0.51 0.51 1458.17
2017-Oct-18 13:02:01 1006.100 13.2 77 9.2       0.51 1458.17
2017-Oct-18 14:02:20 1005.000 15.6 67 9.5       0.51 1458.17
2017-Oct-18 15:01:38 1004.600 16.4 61 8.9 1.3 NNW   0.51 1458.17
2017-Oct-18 16:02:01 1004.000 14.2 68 8.3       0.51 1458.17
2017-Oct-18 17:01:37 1003.900 15.8 62 8.6       0.51 1458.17
2017-Oct-18 18:01:53 1003.800 14.6 63 7.6       0.51 1458.17
2017-Oct-18 19:01:32 1003.900 13.4 67 7.4       0.51 1458.17
2017-Oct-18 20:01:41 1004.400 12.4 70 7.1       0.51 1458.17
2017-Oct-18 21:01:53 1004.500 11.8 73 7.1       0.51 1458.17
2017-Oct-18 22:01:57 1005.000 10.8 76 6.7       0.51 1458.17
2017-Oct-18 23:01:52 1005.400 10.0 80 6.7     1.03 1.55 1459.20

Temperatura Máxima:16°    Temperatura Mínima:
Presión Máxima:1011.200 Hpa    Presión Mínima:1003.800 Hpa


Volver